sensor_id;sensor_type;location;lat;lon;timestamp;P1;durP1;ratioP1;P2;durP2;ratioP2
62830;SDS011;48889;55.782;37.708;2022-07-23T00:00:29;16.45;;;9.15;;
62830;SDS011;48889;55.782;37.708;2022-07-23T00:02:55;10.70;;;4.30;;
62830;SDS011;48889;55.782;37.708;2022-07-23T00:05:21;4.95;;;3.95;;
62830;SDS011;48889;55.782;37.708;2022-07-23T00:07:46;7.30;;;3.38;;
62830;SDS011;48889;55.782;37.708;2022-07-23T00:10:12;4.93;;;3.53;;
62830;SDS011;48889;55.782;37.708;2022-07-23T00:12:38;12.13;;;4.00;;
62830;SDS011;48889;55.782;37.708;2022-07-23T00:15:05;4.90;;;3.38;;
62830;SDS011;48889;55.782;37.708;2022-07-23T00:17:31;7.60;;;4.20;;
62830;SDS011;48889;55.782;37.708;2022-07-23T00:19:57;4.97;;;3.08;;
62830;SDS011;48889;55.782;37.708;2022-07-23T00:22:23;10.32;;;3.42;;
62830;SDS011;48889;55.782;37.708;2022-07-23T00:24:48;5.13;;;3.58;;
62830;SDS011;48889;55.782;37.708;2022-07-23T00:27:14;6.80;;;3.75;;
62830;SDS011;48889;55.782;37.708;2022-07-23T00:29:40;5.30;;;3.85;;
62830;SDS011;48889;55.782;37.708;2022-07-23T00:32:05;4.13;;;3.13;;
62830;SDS011;48889;55.782;37.708;2022-07-23T00:34:31;5.18;;;3.70;;
62830;SDS011;48889;55.782;37.708;2022-07-23T00:36:57;12.00;;;4.00;;
62830;SDS011;48889;55.782;37.708;2022-07-23T00:39:22;7.07;;;3.47;;
62830;SDS011;48889;55.782;37.708;2022-07-23T00:41:48;9.70;;;5.20;;
62830;SDS011;48889;55.782;37.708;2022-07-23T00:44:22;4.00;;;3.25;;
62830;SDS011;48889;55.782;37.708;2022-07-23T00:46:50;6.10;;;3.88;;
62830;SDS011;48889;55.782;37.708;2022-07-23T00:49:22;8.05;;;4.60;;
62830;SDS011;48889;55.782;37.708;2022-07-23T00:51:50;10.48;;;4.45;;
62830;SDS011;48889;55.782;37.708;2022-07-23T00:54:17;8.10;;;4.25;;
62830;SDS011;48889;55.782;37.708;2022-07-23T00:56:44;8.20;;;4.18;;
62830;SDS011;48889;55.782;37.708;2022-07-23T00:59:10;6.55;;;4.28;;
62830;SDS011;48889;55.782;37.708;2022-07-23T01:01:36;5.97;;;3.50;;
62830;SDS011;48889;55.782;37.708;2022-07-23T01:04:02;6.07;;;3.80;;
62830;SDS011;48889;55.782;37.708;2022-07-23T01:06:28;14.15;;;4.07;;
62830;SDS011;48889;55.782;37.708;2022-07-23T01:08:54;15.65;;;4.10;;
62830;SDS011;48889;55.782;37.708;2022-07-23T01:11:21;7.75;;;3.50;;
62830;SDS011;48889;55.782;37.708;2022-07-23T01:13:49;6.28;;;3.75;;
62830;SDS011;48889;55.782;37.708;2022-07-23T01:16:14;8.85;;;3.72;;
62830;SDS011;48889;55.782;37.708;2022-07-23T01:18:40;13.07;;;4.18;;
62830;SDS011;48889;55.782;37.708;2022-07-23T01:21:05;10.60;;;3.90;;
62830;SDS011;48889;55.782;37.708;2022-07-23T01:23:31;5.82;;;4.53;;
62830;SDS011;48889;55.782;37.708;2022-07-23T01:25:57;5.35;;;4.30;;
62830;SDS011;48889;55.782;37.708;2022-07-23T01:28:22;8.13;;;3.92;;
62830;SDS011;48889;55.782;37.708;2022-07-23T01:30:48;6.95;;;4.13;;
62830;SDS011;48889;55.782;37.708;2022-07-23T01:33:15;7.43;;;4.65;;
62830;SDS011;48889;55.782;37.708;2022-07-23T01:35:41;8.30;;;4.35;;
62830;SDS011;48889;55.782;37.708;2022-07-23T01:38:06;7.93;;;4.40;;
62830;SDS011;48889;55.782;37.708;2022-07-23T01:40:32;11.20;;;4.70;;
62830;SDS011;48889;55.782;37.708;2022-07-23T01:42:57;7.40;;;4.35;;
62830;SDS011;48889;55.782;37.708;2022-07-23T01:45:23;12.10;;;4.72;;
62830;SDS011;48889;55.782;37.708;2022-07-23T01:47:49;7.80;;;4.60;;
62830;SDS011;48889;55.782;37.708;2022-07-23T01:50:15;5.80;;;3.83;;
62830;SDS011;48889;55.782;37.708;2022-07-23T01:52:40;10.25;;;4.60;;
62830;SDS011;48889;55.782;37.708;2022-07-23T01:55:06;9.82;;;4.88;;
62830;SDS011;48889;55.782;37.708;2022-07-23T01:57:32;11.75;;;5.35;;
62830;SDS011;48889;55.782;37.708;2022-07-23T01:59:58;9.43;;;4.85;;
62830;SDS011;48889;55.782;37.708;2022-07-23T02:02:24;8.30;;;3.95;;
62830;SDS011;48889;55.782;37.708;2022-07-23T02:04:50;5.10;;;4.40;;
62830;SDS011;48889;55.782;37.708;2022-07-23T02:07:16;8.13;;;4.15;;
62830;SDS011;48889;55.782;37.708;2022-07-23T02:09:41;8.63;;;4.03;;
62830;SDS011;48889;55.782;37.708;2022-07-23T02:12:07;9.25;;;4.05;;
62830;SDS011;48889;55.782;37.708;2022-07-23T02:14:33;14.70;;;4.10;;
62830;SDS011;48889;55.782;37.708;2022-07-23T02:16:59;7.93;;;3.90;;
62830;SDS011;48889;55.782;37.708;2022-07-23T02:19:24;5.30;;;3.92;;
62830;SDS011;48889;55.782;37.708;2022-07-23T02:21:50;4.70;;;3.78;;
62830;SDS011;48889;55.782;37.708;2022-07-23T02:24:16;8.77;;;4.38;;
62830;SDS011;48889;55.782;37.708;2022-07-23T02:26:42;6.35;;;3.95;;
62830;SDS011;48889;55.782;37.708;2022-07-23T02:29:08;11.20;;;3.88;;
62830;SDS011;48889;55.782;37.708;2022-07-23T02:31:34;20.95;;;11.30;;
62830;SDS011;48889;55.782;37.708;2022-07-23T02:34:00;16.13;;;10.25;;
62830;SDS011;48889;55.782;37.708;2022-07-23T02:36:27;10.30;;;7.38;;
62830;SDS011;48889;55.782;37.708;2022-07-23T02:38:52;9.73;;;5.70;;
62830;SDS011;48889;55.782;37.708;2022-07-23T02:41:18;6.70;;;4.57;;
62830;SDS011;48889;55.782;37.708;2022-07-23T02:43:44;11.07;;;4.55;;
62830;SDS011;48889;55.782;37.708;2022-07-23T02:46:11;8.18;;;4.68;;
62830;SDS011;48889;55.782;37.708;2022-07-23T02:48:36;7.38;;;5.20;;
62830;SDS011;48889;55.782;37.708;2022-07-23T02:51:05;8.75;;;4.50;;
62830;SDS011;48889;55.782;37.708;2022-07-23T02:53:31;8.85;;;4.15;;
62830;SDS011;48889;55.782;37.708;2022-07-23T02:55:56;6.80;;;3.88;;
62830;SDS011;48889;55.782;37.708;2022-07-23T02:58:22;6.18;;;4.07;;
62830;SDS011;48889;55.782;37.708;2022-07-23T03:00:48;10.13;;;3.85;;
62830;SDS011;48889;55.782;37.708;2022-07-23T03:03:13;7.75;;;4.00;;
62830;SDS011;48889;55.782;37.708;2022-07-23T03:05:39;12.00;;;4.40;;
62830;SDS011;48889;55.782;37.708;2022-07-23T03:08:04;7.32;;;3.78;;
62830;SDS011;48889;55.782;37.708;2022-07-23T03:10:30;7.40;;;3.75;;
62830;SDS011;48889;55.782;37.708;2022-07-23T03:12:55;11.85;;;4.30;;
62830;SDS011;48889;55.782;37.708;2022-07-23T03:15:21;7.57;;;3.80;;
62830;SDS011;48889;55.782;37.708;2022-07-23T03:17:47;7.20;;;3.78;;
62830;SDS011;48889;55.782;37.708;2022-07-23T03:20:12;8.95;;;3.60;;
62830;SDS011;48889;55.782;37.708;2022-07-23T03:22:38;4.85;;;3.95;;
62830;SDS011;48889;55.782;37.708;2022-07-23T03:25:04;8.90;;;4.03;;
62830;SDS011;48889;55.782;37.708;2022-07-23T03:27:30;4.55;;;3.85;;
62830;SDS011;48889;55.782;37.708;2022-07-23T03:29:57;7.80;;;3.67;;
62830;SDS011;48889;55.782;37.708;2022-07-23T03:32:23;7.13;;;3.65;;
62830;SDS011;48889;55.782;37.708;2022-07-23T03:34:50;9.05;;;3.40;;
62830;SDS011;48889;55.782;37.708;2022-07-23T03:37:16;5.35;;;3.83;;
62830;SDS011;48889;55.782;37.708;2022-07-23T03:39:43;15.55;;;4.07;;
62830;SDS011;48889;55.782;37.708;2022-07-23T03:42:09;7.22;;;4.25;;
62830;SDS011;48889;55.782;37.708;2022-07-23T03:44:34;6.05;;;3.90;;
62830;SDS011;48889;55.782;37.708;2022-07-23T03:47:02;7.07;;;3.75;;
62830;SDS011;48889;55.782;37.708;2022-07-23T03:49:28;4.13;;;3.75;;
62830;SDS011;48889;55.782;37.708;2022-07-23T03:51:54;4.88;;;3.97;;
62830;SDS011;48889;55.782;37.708;2022-07-23T03:54:19;7.07;;;3.78;;
62830;SDS011;48889;55.782;37.708;2022-07-23T03:56:45;12.57;;;3.70;;
62830;SDS011;48889;55.782;37.708;2022-07-23T03:59:10;4.72;;;3.58;;
62830;SDS011;48889;55.782;37.708;2022-07-23T04:01:36;5.47;;;3.78;;
62830;SDS011;48889;55.782;37.708;2022-07-23T04:04:03;5.75;;;3.30;;
62830;SDS011;48889;55.782;37.708;2022-07-23T04:06:28;5.28;;;3.67;;
62830;SDS011;48889;55.782;37.708;2022-07-23T04:08:54;11.77;;;3.45;;
62830;SDS011;48889;55.782;37.708;2022-07-23T04:11:20;3.83;;;3.53;;
62830;SDS011;48889;55.782;37.708;2022-07-23T04:13:45;3.40;;;3.03;;
62830;SDS011;48889;55.782;37.708;2022-07-23T04:16:11;6.47;;;3.67;;
62830;SDS011;48889;55.782;37.708;2022-07-23T04:18:37;6.88;;;3.40;;
62830;SDS011;48889;55.782;37.708;2022-07-23T04:21:03;5.10;;;3.72;;
62830;SDS011;48889;55.782;37.708;2022-07-23T04:23:29;8.50;;;3.35;;
62830;SDS011;48889;55.782;37.708;2022-07-23T04:25:54;5.15;;;3.67;;
62830;SDS011;48889;55.782;37.708;2022-07-23T04:28:20;5.32;;;3.80;;
62830;SDS011;48889;55.782;37.708;2022-07-23T04:30:45;4.47;;;3.33;;
62830;SDS011;48889;55.782;37.708;2022-07-23T04:33:11;3.92;;;3.55;;
62830;SDS011;48889;55.782;37.708;2022-07-23T04:35:37;4.43;;;3.72;;
62830;SDS011;48889;55.782;37.708;2022-07-23T04:38:03;5.65;;;4.00;;
62830;SDS011;48889;55.782;37.708;2022-07-23T04:40:29;7.43;;;3.80;;
62830;SDS011;48889;55.782;37.708;2022-07-23T04:42:56;5.05;;;3.53;;
62830;SDS011;48889;55.782;37.708;2022-07-23T04:45:22;8.43;;;3.80;;
62830;SDS011;48889;55.782;37.708;2022-07-23T04:47:50;5.95;;;3.92;;
62830;SDS011;48889;55.782;37.708;2022-07-23T04:50:16;5.47;;;3.95;;
62830;SDS011;48889;55.782;37.708;2022-07-23T04:52:46;6.47;;;4.13;;
62830;SDS011;48889;55.782;37.708;2022-07-23T04:55:13;3.90;;;3.50;;
62830;SDS011;48889;55.782;37.708;2022-07-23T04:57:38;10.43;;;3.75;;
62830;SDS011;48889;55.782;37.708;2022-07-23T05:00:04;4.28;;;3.75;;
62830;SDS011;48889;55.782;37.708;2022-07-23T05:02:31;8.02;;;3.85;;
62830;SDS011;48889;55.782;37.708;2022-07-23T05:04:56;4.60;;;3.78;;
62830;SDS011;48889;55.782;37.708;2022-07-23T05:07:22;9.75;;;4.22;;
62830;SDS011;48889;55.782;37.708;2022-07-23T05:09:48;5.32;;;3.60;;
62830;SDS011;48889;55.782;37.708;2022-07-23T05:12:13;5.05;;;3.42;;
62830;SDS011;48889;55.782;37.708;2022-07-23T05:14:39;5.03;;;4.15;;
62830;SDS011;48889;55.782;37.708;2022-07-23T05:17:04;5.07;;;3.88;;
62830;SDS011;48889;55.782;37.708;2022-07-23T05:19:30;5.35;;;4.18;;
62830;SDS011;48889;55.782;37.708;2022-07-23T05:21:55;16.17;;;4.70;;
62830;SDS011;48889;55.782;37.708;2022-07-23T05:24:21;10.30;;;4.00;;
62830;SDS011;48889;55.782;37.708;2022-07-23T05:26:47;10.68;;;3.90;;
62830;SDS011;48889;55.782;37.708;2022-07-23T05:29:12;5.30;;;3.83;;
62830;SDS011;48889;55.782;37.708;2022-07-23T05:31:38;5.57;;;3.80;;
62830;SDS011;48889;55.782;37.708;2022-07-23T05:34:04;9.27;;;4.03;;
62830;SDS011;48889;55.782;37.708;2022-07-23T05:36:30;8.55;;;3.95;;
62830;SDS011;48889;55.782;37.708;2022-07-23T05:38:57;5.07;;;3.33;;
62830;SDS011;48889;55.782;37.708;2022-07-23T05:41:23;4.95;;;3.88;;
62830;SDS011;48889;55.782;37.708;2022-07-23T05:43:48;5.97;;;3.85;;
62830;SDS011;48889;55.782;37.708;2022-07-23T05:46:14;7.30;;;4.45;;
62830;SDS011;48889;55.782;37.708;2022-07-23T05:48:39;11.70;;;4.20;;
62830;SDS011;48889;55.782;37.708;2022-07-23T05:51:06;6.38;;;3.85;;
62830;SDS011;48889;55.782;37.708;2022-07-23T05:53:32;6.03;;;3.80;;
62830;SDS011;48889;55.782;37.708;2022-07-23T05:55:59;10.20;;;4.18;;
62830;SDS011;48889;55.782;37.708;2022-07-23T05:58:25;7.10;;;4.40;;
62830;SDS011;48889;55.782;37.708;2022-07-23T06:00:50;4.30;;;3.90;;
62830;SDS011;48889;55.782;37.708;2022-07-23T06:03:16;6.53;;;4.10;;
62830;SDS011;48889;55.782;37.708;2022-07-23T06:05:41;4.72;;;3.80;;
62830;SDS011;48889;55.782;37.708;2022-07-23T06:08:07;3.92;;;3.58;;
62830;SDS011;48889;55.782;37.708;2022-07-23T06:10:33;8.10;;;3.90;;
62830;SDS011;48889;55.782;37.708;2022-07-23T06:12:58;4.40;;;3.58;;
62830;SDS011;48889;55.782;37.708;2022-07-23T06:15:25;5.18;;;3.90;;
62830;SDS011;48889;55.782;37.708;2022-07-23T06:17:50;4.13;;;3.72;;
62830;SDS011;48889;55.782;37.708;2022-07-23T06:20:16;4.07;;;3.65;;
62830;SDS011;48889;55.782;37.708;2022-07-23T06:22:42;7.57;;;3.97;;
62830;SDS011;48889;55.782;37.708;2022-07-23T06:25:07;5.20;;;4.18;;
62830;SDS011;48889;55.782;37.708;2022-07-23T06:27:34;4.20;;;3.80;;
62830;SDS011;48889;55.782;37.708;2022-07-23T06:30:00;8.32;;;4.20;;
62830;SDS011;48889;55.782;37.708;2022-07-23T06:32:32;6.00;;;3.70;;
62830;SDS011;48889;55.782;37.708;2022-07-23T06:34:57;12.52;;;4.13;;
62830;SDS011;48889;55.782;37.708;2022-07-23T06:37:24;7.57;;;4.18;;
62830;SDS011;48889;55.782;37.708;2022-07-23T06:39:50;5.72;;;4.20;;
62830;SDS011;48889;55.782;37.708;2022-07-23T06:42:15;5.72;;;4.13;;
62830;SDS011;48889;55.782;37.708;2022-07-23T06:44:41;7.10;;;4.10;;
62830;SDS011;48889;55.782;37.708;2022-07-23T06:47:07;6.60;;;4.10;;
62830;SDS011;48889;55.782;37.708;2022-07-23T06:49:33;11.88;;;4.68;;
62830;SDS011;48889;55.782;37.708;2022-07-23T06:51:58;5.43;;;4.40;;
62830;SDS011;48889;55.782;37.708;2022-07-23T06:54:24;5.47;;;4.18;;
62830;SDS011;48889;55.782;37.708;2022-07-23T06:56:50;8.30;;;4.75;;
62830;SDS011;48889;55.782;37.708;2022-07-23T06:59:15;7.55;;;3.90;;
62830;SDS011;48889;55.782;37.708;2022-07-23T07:01:41;6.00;;;4.95;;
62830;SDS011;48889;55.782;37.708;2022-07-23T07:04:06;5.03;;;3.83;;
62830;SDS011;48889;55.782;37.708;2022-07-23T07:06:32;7.47;;;4.13;;
62830;SDS011;48889;55.782;37.708;2022-07-23T07:08:57;4.88;;;4.03;;
62830;SDS011;48889;55.782;37.708;2022-07-23T07:11:23;6.93;;;4.32;;
62830;SDS011;48889;55.782;37.708;2022-07-23T07:13:50;6.60;;;3.70;;
62830;SDS011;48889;55.782;37.708;2022-07-23T07:16:16;5.07;;;4.18;;
62830;SDS011;48889;55.782;37.708;2022-07-23T07:18:42;5.90;;;4.38;;
62830;SDS011;48889;55.782;37.708;2022-07-23T07:21:07;4.47;;;4.07;;
62830;SDS011;48889;55.782;37.708;2022-07-23T07:23:33;5.18;;;4.68;;
62830;SDS011;48889;55.782;37.708;2022-07-23T07:25:58;6.18;;;4.30;;
62830;SDS011;48889;55.782;37.708;2022-07-23T07:28:24;8.73;;;4.18;;
62830;SDS011;48889;55.782;37.708;2022-07-23T07:30:50;6.10;;;4.28;;
62830;SDS011;48889;55.782;37.708;2022-07-23T07:33:16;6.18;;;4.75;;
62830;SDS011;48889;55.782;37.708;2022-07-23T07:35:42;5.20;;;4.53;;
62830;SDS011;48889;55.782;37.708;2022-07-23T07:38:08;5.43;;;4.35;;
62830;SDS011;48889;55.782;37.708;2022-07-23T07:40:34;8.07;;;5.00;;
62830;SDS011;48889;55.782;37.708;2022-07-23T07:42:59;4.90;;;4.40;;
62830;SDS011;48889;55.782;37.708;2022-07-23T07:45:26;11.50;;;4.18;;
62830;SDS011;48889;55.782;37.708;2022-07-23T07:47:52;5.97;;;4.70;;
62830;SDS011;48889;55.782;37.708;2022-07-23T07:50:18;5.28;;;4.30;;
62830;SDS011;48889;55.782;37.708;2022-07-23T07:52:44;5.00;;;4.53;;
62830;SDS011;48889;55.782;37.708;2022-07-23T07:55:10;5.13;;;4.35;;
62830;SDS011;48889;55.782;37.708;2022-07-23T07:57:37;4.75;;;4.35;;
62830;SDS011;48889;55.782;37.708;2022-07-23T08:00:03;5.28;;;4.47;;
62830;SDS011;48889;55.782;37.708;2022-07-23T08:02:41;7.15;;;4.80;;
62830;SDS011;48889;55.782;37.708;2022-07-23T08:05:11;4.72;;;4.25;;
62830;SDS011;48889;55.782;37.708;2022-07-23T08:07:37;4.70;;;4.28;;
62830;SDS011;48889;55.782;37.708;2022-07-23T08:10:08;8.00;;;4.60;;
62830;SDS011;48889;55.782;37.708;2022-07-23T08:15:12;5.50;;;4.13;;
62830;SDS011;48889;55.782;37.708;2022-07-23T08:17:38;5.68;;;4.50;;
62830;SDS011;48889;55.782;37.708;2022-07-23T08:20:05;5.25;;;4.32;;
62830;SDS011;48889;55.782;37.708;2022-07-23T08:22:55;8.00;;;4.57;;
62830;SDS011;48889;55.782;37.708;2022-07-23T08:25:26;5.75;;;4.50;;
62830;SDS011;48889;55.782;37.708;2022-07-23T08:28:01;4.70;;;4.13;;
62830;SDS011;48889;55.782;37.708;2022-07-23T08:30:28;5.03;;;4.22;;
62830;SDS011;48889;55.782;37.708;2022-07-23T08:32:55;4.78;;;4.35;;
62830;SDS011;48889;55.782;37.708;2022-07-23T08:35:22;4.90;;;4.45;;
62830;SDS011;48889;55.782;37.708;2022-07-23T08:37:49;4.15;;;3.75;;
62830;SDS011;48889;55.782;37.708;2022-07-23T08:40:15;5.28;;;4.20;;
62830;SDS011;48889;55.782;37.708;2022-07-23T08:42:40;4.68;;;4.28;;
62830;SDS011;48889;55.782;37.708;2022-07-23T08:45:08;9.00;;;4.80;;
62830;SDS011;48889;55.782;37.708;2022-07-23T08:47:35;5.60;;;4.35;;
62830;SDS011;48889;55.782;37.708;2022-07-23T08:50:03;10.13;;;4.10;;
62830;SDS011;48889;55.782;37.708;2022-07-23T08:52:30;7.45;;;4.28;;
62830;SDS011;48889;55.782;37.708;2022-07-23T08:54:56;5.15;;;4.60;;
62830;SDS011;48889;55.782;37.708;2022-07-23T08:57:22;7.72;;;4.65;;
62830;SDS011;48889;55.782;37.708;2022-07-23T08:59:48;4.72;;;4.22;;
62830;SDS011;48889;55.782;37.708;2022-07-23T09:02:13;4.93;;;4.43;;
62830;SDS011;48889;55.782;37.708;2022-07-23T09:04:39;5.07;;;4.25;;
62830;SDS011;48889;55.782;37.708;2022-07-23T09:07:05;5.95;;;4.65;;
62830;SDS011;48889;55.782;37.708;2022-07-23T09:09:31;5.70;;;4.70;;
62830;SDS011;48889;55.782;37.708;2022-07-23T09:12:29;5.00;;;4.55;;
62830;SDS011;48889;55.782;37.708;2022-07-23T09:14:51;6.35;;;4.68;;
62830;SDS011;48889;55.782;37.708;2022-07-23T09:17:17;5.15;;;4.32;;
62830;SDS011;48889;55.782;37.708;2022-07-23T09:19:43;5.07;;;4.57;;
62830;SDS011;48889;55.782;37.708;2022-07-23T09:22:23;6.07;;;4.50;;
62830;SDS011;48889;55.782;37.708;2022-07-23T09:25:11;5.30;;;4.80;;
62830;SDS011;48889;55.782;37.708;2022-07-23T09:30:22;5.07;;;4.20;;
62830;SDS011;48889;55.782;37.708;2022-07-23T09:35:43;4.93;;;4.53;;
62830;SDS011;48889;55.782;37.708;2022-07-23T09:38:14;6.95;;;4.60;;
62830;SDS011;48889;55.782;37.708;2022-07-23T09:40:40;5.63;;;4.20;;
62830;SDS011;48889;55.782;37.708;2022-07-23T09:43:06;4.00;;;3.60;;
62830;SDS011;48889;55.782;37.708;2022-07-23T09:45:32;5.63;;;3.78;;
62830;SDS011;48889;55.782;37.708;2022-07-23T09:48:14;5.60;;;3.35;;
62830;SDS011;48889;55.782;37.708;2022-07-23T09:50:44;4.00;;;3.70;;
62830;SDS011;48889;55.782;37.708;2022-07-23T09:53:23;6.53;;;3.53;;
62830;SDS011;48889;55.782;37.708;2022-07-23T09:55:51;4.70;;;3.33;;
62830;SDS011;48889;55.782;37.708;2022-07-23T09:58:20;3.63;;;3.42;;
62830;SDS011;48889;55.782;37.708;2022-07-23T10:00:48;3.60;;;3.40;;
62830;SDS011;48889;55.782;37.708;2022-07-23T10:03:14;3.95;;;3.65;;
62830;SDS011;48889;55.782;37.708;2022-07-23T10:05:40;3.75;;;3.40;;
62830;SDS011;48889;55.782;37.708;2022-07-23T10:08:08;6.88;;;3.40;;
62830;SDS011;48889;55.782;37.708;2022-07-23T10:10:38;4.00;;;3.10;;
62830;SDS011;48889;55.782;37.708;2022-07-23T10:13:05;4.15;;;2.88;;
62830;SDS011;48889;55.782;37.708;2022-07-23T10:15:43;3.37;;;3.10;;
62830;SDS011;48889;55.782;37.708;2022-07-23T10:18:10;3.17;;;2.97;;
62830;SDS011;48889;55.782;37.708;2022-07-23T10:20:37;2.92;;;2.70;;
62830;SDS011;48889;55.782;37.708;2022-07-23T10:23:22;5.72;;;3.20;;
62830;SDS011;48889;55.782;37.708;2022-07-23T10:26:12;3.30;;;3.00;;
62830;SDS011;48889;55.782;37.708;2022-07-23T10:34:48;6.47;;;2.70;;
62830;SDS011;48889;55.782;37.708;2022-07-23T10:38:10;4.97;;;2.90;;
62830;SDS011;48889;55.782;37.708;2022-07-23T10:40:14;3.00;;;2.80;;
62830;SDS011;48889;55.782;37.708;2022-07-23T10:42:47;4.80;;;3.10;;
62830;SDS011;48889;55.782;37.708;2022-07-23T10:45:35;4.20;;;2.97;;
62830;SDS011;48889;55.782;37.708;2022-07-23T10:51:10;4.47;;;3.40;;
62830;SDS011;48889;55.782;37.708;2022-07-23T10:56:16;4.63;;;3.60;;
62830;SDS011;48889;55.782;37.708;2022-07-23T10:59:04;4.03;;;3.55;;
62830;SDS011;48889;55.782;37.708;2022-07-23T11:01:37;3.78;;;3.47;;
62830;SDS011;48889;55.782;37.708;2022-07-23T11:04:06;4.45;;;3.33;;
62830;SDS011;48889;55.782;37.708;2022-07-23T11:09:59;4.63;;;3.05;;
62830;SDS011;48889;55.782;37.708;2022-07-23T11:17:23;9.05;;;3.22;;
62830;SDS011;48889;55.782;37.708;2022-07-23T11:22:38;2.67;;;2.50;;
62830;SDS011;48889;55.782;37.708;2022-07-23T11:25:05;6.45;;;3.00;;
62830;SDS011;48889;55.782;37.708;2022-07-23T11:27:38;6.43;;;3.00;;
62830;SDS011;48889;55.782;37.708;2022-07-23T11:30:08;3.50;;;2.75;;
62830;SDS011;48889;55.782;37.708;2022-07-23T11:32:37;2.97;;;2.78;;
62830;SDS011;48889;55.782;37.708;2022-07-23T11:35:21;2.80;;;2.60;;
62830;SDS011;48889;55.782;37.708;2022-07-23T11:38:06;4.15;;;2.90;;
62830;SDS011;48889;55.782;37.708;2022-07-23T11:40:36;3.63;;;2.90;;
62830;SDS011;48889;55.782;37.708;2022-07-23T11:43:08;3.83;;;2.95;;
62830;SDS011;48889;55.782;37.708;2022-07-23T11:45:36;4.57;;;3.00;;
62830;SDS011;48889;55.782;37.708;2022-07-23T11:48:05;3.38;;;3.08;;
62830;SDS011;48889;55.782;37.708;2022-07-23T11:50:32;3.78;;;2.80;;
62830;SDS011;48889;55.782;37.708;2022-07-23T11:52:58;3.78;;;3.17;;
62830;SDS011;48889;55.782;37.708;2022-07-23T11:55:24;4.47;;;3.13;;
62830;SDS011;48889;55.782;37.708;2022-07-23T11:57:51;4.50;;;3.72;;
62830;SDS011;48889;55.782;37.708;2022-07-23T12:00:20;3.60;;;3.30;;
62830;SDS011;48889;55.782;37.708;2022-07-23T12:02:54;5.95;;;3.50;;
62830;SDS011;48889;55.782;37.708;2022-07-23T12:05:25;9.20;;;3.50;;
62830;SDS011;48889;55.782;37.708;2022-07-23T12:07:54;3.28;;;3.08;;
62830;SDS011;48889;55.782;37.708;2022-07-23T12:10:22;5.07;;;2.90;;
62830;SDS011;48889;55.782;37.708;2022-07-23T12:15:29;7.53;;;3.00;;
62830;SDS011;48889;55.782;37.708;2022-07-23T12:17:58;3.58;;;3.20;;
62830;SDS011;48889;55.782;37.708;2022-07-23T12:20:26;3.47;;;2.95;;
62830;SDS011;48889;55.782;37.708;2022-07-23T12:25:28;17.48;;;3.33;;
62830;SDS011;48889;55.782;37.708;2022-07-23T12:30:39;2.90;;;2.65;;
62830;SDS011;48889;55.782;37.708;2022-07-23T12:33:05;4.22;;;2.83;;
62830;SDS011;48889;55.782;37.708;2022-07-23T12:35:36;4.10;;;2.80;;
62830;SDS011;48889;55.782;37.708;2022-07-23T12:38:10;9.63;;;3.10;;
62830;SDS011;48889;55.782;37.708;2022-07-23T12:43:31;7.68;;;3.13;;
62830;SDS011;48889;55.782;37.708;2022-07-23T12:48:35;3.13;;;2.85;;
62830;SDS011;48889;55.782;37.708;2022-07-23T12:51:05;3.88;;;3.05;;
62830;SDS011;48889;55.782;37.708;2022-07-23T12:58:49;5.43;;;2.90;;
62830;SDS011;48889;55.782;37.708;2022-07-23T13:01:27;3.90;;;3.00;;
62830;SDS011;48889;55.782;37.708;2022-07-23T13:04:09;3.13;;;2.83;;
62830;SDS011;48889;55.782;37.708;2022-07-23T13:09:06;4.57;;;3.08;;
62830;SDS011;48889;55.782;37.708;2022-07-23T13:11:33;4.85;;;3.28;;
62830;SDS011;48889;55.782;37.708;2022-07-23T13:13:59;4.75;;;3.30;;
62830;SDS011;48889;55.782;37.708;2022-07-23T13:16:28;3.75;;;3.00;;
62830;SDS011;48889;55.782;37.708;2022-07-23T13:18:55;3.42;;;3.00;;
62830;SDS011;48889;55.782;37.708;2022-07-23T13:21:24;3.03;;;2.83;;
62830;SDS011;48889;55.782;37.708;2022-07-23T13:23:50;3.13;;;2.80;;
62830;SDS011;48889;55.782;37.708;2022-07-23T13:26:16;3.25;;;2.95;;
62830;SDS011;48889;55.782;37.708;2022-07-23T13:28:42;5.32;;;3.10;;
62830;SDS011;48889;55.782;37.708;2022-07-23T13:31:08;3.08;;;2.88;;
62830;SDS011;48889;55.782;37.708;2022-07-23T13:33:34;5.43;;;2.95;;
62830;SDS011;48889;55.782;37.708;2022-07-23T13:35:59;3.10;;;2.78;;
62830;SDS011;48889;55.782;37.708;2022-07-23T13:38:25;7.45;;;3.03;;
62830;SDS011;48889;55.782;37.708;2022-07-23T13:40:51;5.93;;;3.17;;
62830;SDS011;48889;55.782;37.708;2022-07-23T13:43:19;5.55;;;2.83;;
62830;SDS011;48889;55.782;37.708;2022-07-23T13:48:13;4.00;;;2.90;;
62830;SDS011;48889;55.782;37.708;2022-07-23T13:50:39;5.25;;;3.40;;
62830;SDS011;48889;55.782;37.708;2022-07-23T13:53:07;7.88;;;3.10;;
62830;SDS011;48889;55.782;37.708;2022-07-23T13:55:36;3.20;;;2.88;;
62830;SDS011;48889;55.782;37.708;2022-07-23T13:58:03;3.60;;;3.30;;
62830;SDS011;48889;55.782;37.708;2022-07-23T14:00:31;4.68;;;3.40;;
62830;SDS011;48889;55.782;37.708;2022-07-23T14:02:57;3.50;;;3.20;;
62830;SDS011;48889;55.782;37.708;2022-07-23T14:05:24;4.32;;;3.30;;
62830;SDS011;48889;55.782;37.708;2022-07-23T14:07:49;6.28;;;3.15;;
62830;SDS011;48889;55.782;37.708;2022-07-23T14:10:17;4.85;;;3.42;;
62830;SDS011;48889;55.782;37.708;2022-07-23T14:12:44;4.00;;;3.60;;
62830;SDS011;48889;55.782;37.708;2022-07-23T14:15:11;4.20;;;3.53;;
62830;SDS011;48889;55.782;37.708;2022-07-23T14:17:37;4.88;;;3.58;;
62830;SDS011;48889;55.782;37.708;2022-07-23T14:20:04;7.20;;;4.10;;
62830;SDS011;48889;55.782;37.708;2022-07-23T14:22:31;4.45;;;4.05;;
62830;SDS011;48889;55.782;37.708;2022-07-23T14:24:57;4.30;;;3.90;;
62830;SDS011;48889;55.782;37.708;2022-07-23T14:27:24;4.00;;;3.70;;
62830;SDS011;48889;55.782;37.708;2022-07-23T14:29:50;3.90;;;3.58;;
62830;SDS011;48889;55.782;37.708;2022-07-23T14:32:18;5.13;;;3.97;;
62830;SDS011;48889;55.782;37.708;2022-07-23T14:34:44;8.15;;;4.63;;
62830;SDS011;48889;55.782;37.708;2022-07-23T14:37:10;7.15;;;4.32;;
62830;SDS011;48889;55.782;37.708;2022-07-23T14:39:37;5.20;;;4.10;;
62830;SDS011;48889;55.782;37.708;2022-07-23T14:42:04;7.32;;;4.03;;
62830;SDS011;48889;55.782;37.708;2022-07-23T14:44:30;4.72;;;4.32;;
62830;SDS011;48889;55.782;37.708;2022-07-23T14:46:55;6.00;;;3.72;;
62830;SDS011;48889;55.782;37.708;2022-07-23T14:49:21;6.50;;;4.22;;
62830;SDS011;48889;55.782;37.708;2022-07-23T14:51:47;6.95;;;4.10;;
62830;SDS011;48889;55.782;37.708;2022-07-23T14:54:14;4.40;;;4.00;;
62830;SDS011;48889;55.782;37.708;2022-07-23T14:56:40;4.78;;;3.88;;
62830;SDS011;48889;55.782;37.708;2022-07-23T14:59:07;4.82;;;4.30;;
62830;SDS011;48889;55.782;37.708;2022-07-23T15:01:33;8.82;;;4.18;;
62830;SDS011;48889;55.782;37.708;2022-07-23T15:03:59;5.45;;;4.30;;
62830;SDS011;48889;55.782;37.708;2022-07-23T15:06:24;4.55;;;4.13;;
62830;SDS011;48889;55.782;37.708;2022-07-23T15:08:52;7.05;;;4.20;;
62830;SDS011;48889;55.782;37.708;2022-07-23T15:11:18;5.53;;;4.22;;
62830;SDS011;48889;55.782;37.708;2022-07-23T15:13:43;5.50;;;4.00;;
62830;SDS011;48889;55.782;37.708;2022-07-23T15:16:09;4.82;;;3.92;;
62830;SDS011;48889;55.782;37.708;2022-07-23T15:18:35;4.53;;;4.13;;
62830;SDS011;48889;55.782;37.708;2022-07-23T15:21:01;7.22;;;3.88;;
62830;SDS011;48889;55.782;37.708;2022-07-23T15:23:27;4.47;;;4.00;;
62830;SDS011;48889;55.782;37.708;2022-07-23T15:25:54;11.18;;;4.10;;
62830;SDS011;48889;55.782;37.708;2022-07-23T15:28:20;6.32;;;4.20;;